Sunday, June 26, 2016
18:59 UTC
  |  Log In   |  Register Free
Airport Search:

Lonesome Pine Airport
(KLNP)

Lonesome Pine Airport Diagram
No Airport Diagram Available

FAA data valid effective May 26 2016 - Jul 21 2016 (unless otherwise noted).

 
 
 
 
 
 
 
 
 
 
 
 
 
 
Current Aviation Weather for KLNP

Weather Summary


The most recent METAR observation for LNP was updated at: 12:55 UTC
METAR for KLNP is not available. Closest METAR is for KVJI
KLNP  (most recent observation was updatred at 26:18 UTC)
261835Z AUTO 06004KT 10SM SCT046 31/13 A3024 RMK AO2

KVJI  (29.9 nm NW)   (most recent observation was updated at 26:18 UTC)
261835Z AUTO 31004KT 10SM SCT042 SCT050 30/18 A3022 RMK AO2 T03010181

KTRI  (31.3 nm NW)   (most recent observation was updated at 26:18 UTC)
261853Z 00000KT 10SM BKN055 32/17 A3016 RMK AO2 SLP186 T03220172

TAF for KLNP is not available.
KTRI  (31.3 nm NW)   (most recent observation was updatred at 26:17 UTC)
261730Z 2618/2718 23003KT P6SM SCT050 FM270400 00000KT P6SM SCT040 BKN150 FM271400 23003KT P6SM BKN040 FM271700 24006KT P6SM VCTS BKN035CB


GlobalAir.com is loading additional information.
 Current Weather at LNP
82.0 F° (28.0 C°)

North winds at 3.5 mph
Pressure:
30.28 in
Humidity:
45%
Wind:
North at 3.5 mph
Dew Point:
59.0 F° (15.0 C°)
Visibility:
10.00 mi
LNP NOAA Radar




Find All Airport Services Find A Hotel Find A Rental Car Find A Golf Course Find A Restaurant $100 Hamburger



Airport Weather Forecast for KLNP

Translated METAR for KLNP (1835 UTC)
METAR:
KLNP 261835Z AUTO 06004KT 10SM SCT046 31/13 A3024 RMK AO2
Conditions at:
KLNP (Lonesome Pine, VA) observed 1835 UTC 26 June 2016
Temperature:
31°C (87.8°F)
Dewpoint:
13°C (55.4°F) [RH = 33.3]
Pressure:
30.24 inches Hg (1024 mb)
Winds:
from the ENE (060 degrees) at 4.6 mph (4 knots: 2.1 m/s)
Visibility:
10 mile(s)
Ceiling:
at least 12,000 feet AGL
Clouds:
Scattered Clouds at 4,600 feet AGL
Remarks:
site is un-manned
site is automated and HAS a precipitation sensor

Translated TAF for KTRI (Tri-Cities Rgnl Tn/Va, TN) (1730 UTC)
TAF text:
KTRI 261730Z 2618/2718 23003KT P6SM SCT050
Forecast period:
Sunday Jun 26 2016 18:00 UTC - Monday Jun 27 2016 18:00 UTC
Forecast type:
FROM: standard forecast or significant change
Winds:
from the SW (230 degrees) at 3.5 mph (3 knots: 1.5 m/s)
Visibility:
6 or more mile(s) (9.7+ km)
Ceiling:
at least 12,000 feet AGL
Clouds:
Scattered Clouds at 5,000 feet AGL
Weather:
no significant weather observed at this time
TAF text:
FM270400 00000KT P6SM SCT040 BKN150
Forecast period:
Monday Jun 27 2016 04:00 UTC - Monday Jun 27 2016 14:00 UTC
Forecast type:
FROM: standard forecast or significant change
Winds:
from the N (000 degrees) at 0 mph (0 knots: 0 m/s)
Visibility:
6 or more mile(s) (9.7+ km)
Ceiling:
15,000 feet AGL
Clouds:
Scattered Clouds at 4,000 feet AGL
Broken Cloud Cover at 15,000 feet AGL
Weather:
no significant weather observed at this time
TAF text:
FM271400 23003KT P6SM BKN040
Forecast period:
Monday Jun 27 2016 14:00 UTC - Monday Jun 27 2016 17:00 UTC
Forecast type:
FROM: standard forecast or significant change
Winds:
from the SW (230 degrees) at 3.5 mph (3 knots: 1.5 m/s)
Visibility:
6 or more mile(s) (9.7+ km)
Ceiling:
4,000 feet AGL
Clouds:
Broken Cloud Cover at 4,000 feet AGL
Weather:
no significant weather observed at this time
TAF text:
FM271700 24006KT P6SM VCTS BKN035CB
Forecast period:
Monday Jun 27 2016 17:00 UTC - Monday Jun 27 2016 18:00 UTC
Forecast type:
FROM: standard forecast or significant change
Winds:
from the WSW (240 degrees) at 6.9 mph (6 knots: 3.1 m/s)
Visibility:
6 or more mile(s) (9.7+ km)
Ceiling:
Clouds:
Weather:
Moderate In Vicinity Thunderstorm
FBO's on the Field
FBO Company Facility Photos Services Transportation Aviation Fuel Prices: Prices include tax
Catering Weather Repair Courtesy Rental Type 100LL JetA JetA+ MOGAS 8087
 
Lonesome Pine Airport

This FBO has not yet been rated
FS:Shell
Last Updated: Jun-07
Login to update fuel prices
SS:
Contact Lonesome Pine AirportMore FBO Information
 
Add another FBO Facility Photos Catering Weather Repair Courtesy Rental Type 100LL JetA JetA+ MOGAS 8087
Services Transportation Aviation Fuel Prices: Prices include tax


model-print
model-print
model-print
model-print